createdAt,value
2018-12-24T00:00:14.448Z,3.57
2018-12-24T00:02:44.026Z,3.00
2018-12-24T00:05:13.218Z,3.83
2018-12-24T00:07:42.692Z,3.80
2018-12-24T00:10:11.885Z,3.13
2018-12-24T00:12:41.207Z,3.10
2018-12-24T00:15:10.775Z,3.17
2018-12-24T00:17:39.988Z,3.40
2018-12-24T00:20:09.216Z,3.27
2018-12-24T00:22:38.841Z,2.60
2018-12-24T00:25:07.999Z,3.13
2018-12-24T00:27:37.488Z,2.80
2018-12-24T00:30:07.039Z,3.10
2018-12-24T00:32:36.258Z,3.30
2018-12-24T00:35:05.638Z,2.97
2018-12-24T00:37:34.870Z,3.07
2018-12-24T00:40:04.470Z,2.93
2018-12-24T00:42:33.938Z,2.70
2018-12-24T00:45:03.403Z,2.90
2018-12-24T00:47:32.665Z,3.20
2018-12-24T00:50:01.952Z,2.90
2018-12-24T00:52:31.388Z,2.40
2018-12-24T00:55:00.586Z,3.00
2018-12-24T01:00:18.083Z,3.90
2018-12-24T01:02:47.350Z,4.20
2018-12-24T01:05:16.834Z,3.67
2018-12-24T01:07:46.300Z,4.30
2018-12-24T01:10:15.519Z,4.93
2018-12-24T01:12:44.706Z,5.20
2018-12-24T01:15:13.940Z,5.53
2018-12-24T01:17:43.158Z,5.53
2018-12-24T01:20:13.026Z,5.97
2018-12-24T01:22:42.237Z,5.60
2018-12-24T01:25:13.323Z,5.07
2018-12-24T01:27:43.129Z,5.63
2018-12-24T01:30:12.679Z,5.87
2018-12-24T01:32:42.159Z,6.07
2018-12-24T01:35:11.389Z,5.63
2018-12-24T01:37:40.855Z,5.67
2018-12-24T01:40:10.124Z,5.50
2018-12-24T01:42:39.351Z,5.47
2018-12-24T01:45:08.856Z,5.67
2018-12-24T01:47:38.155Z,5.60
2018-12-24T01:50:07.623Z,5.07
2018-12-24T01:52:36.846Z,4.70
2018-12-24T01:55:06.051Z,4.37
2018-12-24T01:57:35.284Z,4.33
2018-12-24T02:00:04.602Z,4.03
2018-12-24T02:02:34.151Z,4.33
2018-12-24T02:05:03.665Z,3.80
2018-12-24T02:07:33.103Z,3.93
2018-12-24T02:10:02.364Z,3.40
2018-12-24T02:12:31.639Z,3.80
2018-12-24T02:15:01.106Z,3.30
2018-12-24T02:17:30.642Z,3.47
2018-12-24T02:20:00.011Z,3.47
2018-12-24T02:22:29.456Z,3.23
2018-12-24T02:24:58.673Z,3.50
2018-12-24T02:27:28.148Z,3.27
2018-12-24T02:29:57.607Z,3.43
2018-12-24T02:32:26.838Z,3.43
2018-12-24T02:34:56.310Z,3.43
2018-12-24T02:37:25.780Z,3.80
2018-12-24T02:39:55.000Z,3.50
2018-12-24T02:42:24.201Z,3.50
2018-12-24T02:44:53.406Z,3.87
2018-12-24T02:47:23.004Z,3.63
2018-12-24T02:49:52.271Z,3.73
2018-12-24T02:52:21.790Z,3.83
2018-12-24T02:54:51.008Z,4.10
2018-12-24T02:57:20.476Z,4.47
2018-12-24T02:59:49.829Z,4.50
2018-12-24T03:02:19.056Z,4.30
2018-12-24T03:04:48.251Z,4.13
2018-12-24T03:07:17.481Z,4.23
2018-12-24T03:09:46.938Z,4.33
2018-12-24T03:12:16.184Z,4.03
2018-12-24T03:14:45.645Z,4.20
2018-12-24T03:17:14.892Z,4.70
2018-12-24T03:19:44.112Z,4.43
2018-12-24T03:22:13.610Z,4.00
2018-12-24T03:24:43.121Z,4.43
2018-12-24T03:27:12.350Z,4.80
2018-12-24T03:29:41.571Z,4.07
2018-12-24T03:32:10.841Z,3.73
2018-12-24T03:34:40.247Z,4.13
2018-12-24T03:37:09.722Z,4.13
2018-12-24T03:39:39.023Z,4.30
2018-12-24T03:42:08.241Z,4.07
2018-12-24T03:44:37.722Z,3.83
2018-12-24T03:47:07.840Z,4.40
2018-12-24T03:49:37.151Z,4.07
2018-12-24T03:52:06.370Z,4.50
2018-12-24T03:54:35.564Z,4.13
2018-12-24T03:57:04.760Z,4.70
2018-12-24T03:59:33.960Z,4.10
2018-12-24T04:02:03.154Z,4.10
2018-12-24T04:04:32.476Z,3.93
2018-12-24T04:07:01.735Z,3.80
2018-12-24T04:09:30.985Z,4.00
2018-12-24T04:12:00.503Z,3.53
2018-12-24T04:14:29.747Z,3.93
2018-12-24T04:16:59.007Z,3.80
2018-12-24T04:19:28.245Z,3.83
2018-12-24T04:22:00.187Z,4.20
2018-12-24T04:24:29.550Z,4.40
2018-12-24T04:26:58.999Z,3.87
2018-12-24T04:29:28.257Z,3.97
2018-12-24T04:31:57.477Z,3.40
2018-12-24T04:34:26.965Z,3.50
2018-12-24T04:36:56.406Z,3.00
2018-12-24T04:39:25.647Z,3.33
2018-12-24T04:41:54.884Z,2.70
2018-12-24T04:44:24.355Z,2.80
2018-12-24T04:46:53.584Z,3.07
2018-12-24T04:49:23.068Z,2.70
2018-12-24T04:51:52.508Z,2.87
2018-12-24T04:54:22.016Z,2.60
2018-12-24T04:56:51.484Z,2.40
2018-12-24T04:59:20.968Z,2.80
2018-12-24T05:01:50.221Z,2.40
2018-12-24T05:04:19.726Z,2.87
2018-12-24T05:06:49.231Z,2.80
2018-12-24T05:09:18.535Z,2.83
2018-12-24T05:11:48.022Z,2.90
2018-12-24T05:14:17.218Z,2.57
2018-12-24T05:16:46.458Z,3.10
2018-12-24T05:19:15.681Z,2.10
2018-12-24T05:21:44.907Z,2.17
2018-12-24T05:24:14.224Z,1.77
2018-12-24T05:26:43.468Z,2.47
2018-12-24T05:29:12.668Z,2.03
2018-12-24T05:31:42.111Z,2.00
2018-12-24T05:34:11.574Z,2.10
2018-12-24T05:36:40.791Z,2.50
2018-12-24T05:39:10.260Z,2.13
2018-12-24T05:41:39.835Z,3.37
2018-12-24T05:44:09.458Z,2.50
2018-12-24T05:46:38.645Z,2.30
2018-12-24T05:49:07.872Z,2.17
2018-12-24T05:51:37.087Z,2.07
2018-12-24T05:54:06.277Z,2.00
2018-12-24T05:56:35.998Z,2.40
2018-12-24T05:59:05.215Z,2.20
2018-12-24T06:01:34.734Z,2.47
2018-12-24T06:04:03.989Z,2.20
2018-12-24T06:06:33.246Z,2.20
2018-12-24T06:09:02.994Z,2.47
2018-12-24T06:11:32.626Z,2.70
2018-12-24T06:14:01.910Z,2.93
2018-12-24T06:16:31.415Z,2.97
2018-12-24T06:19:00.672Z,3.03
2018-12-24T06:21:29.974Z,3.00
2018-12-24T06:23:59.567Z,2.83
2018-12-24T06:26:29.140Z,3.27
2018-12-24T06:28:58.629Z,3.47
2018-12-24T06:31:27.875Z,3.20
2018-12-24T06:33:57.112Z,2.80
2018-12-24T06:36:26.318Z,3.00
2018-12-24T06:38:55.542Z,2.80
2018-12-24T06:41:25.010Z,3.10
2018-12-24T06:43:54.513Z,2.83
2018-12-24T06:46:23.775Z,2.80
2018-12-24T06:48:53.046Z,2.80
2018-12-24T06:51:22.499Z,2.60
2018-12-24T06:53:51.657Z,2.53
2018-12-24T06:56:20.884Z,2.73
2018-12-24T06:58:50.108Z,2.90
2018-12-24T07:01:19.913Z,3.07
2018-12-24T07:03:49.526Z,3.13
2018-12-24T07:06:18.879Z,2.93
2018-12-24T07:08:48.399Z,3.13
2018-12-24T07:11:17.599Z,3.10
2018-12-24T07:13:46.802Z,3.40
2018-12-24T07:16:16.308Z,3.20
2018-12-24T07:18:45.764Z,3.30
2018-12-24T07:21:14.987Z,3.20
2018-12-24T07:23:44.286Z,3.23
2018-12-24T07:26:13.530Z,3.73
2018-12-24T07:28:42.772Z,4.10
2018-12-24T07:31:12.277Z,3.20
2018-12-24T07:33:41.499Z,3.93
2018-12-24T07:36:11.050Z,4.00
2018-12-24T07:38:40.517Z,3.90
2018-12-24T07:41:09.811Z,3.10
2018-12-24T07:43:39.357Z,3.57
2018-12-24T07:46:08.621Z,3.07
2018-12-24T07:48:37.826Z,3.10
2018-12-24T07:51:07.032Z,3.23
2018-12-24T07:53:36.482Z,3.37
2018-12-24T07:56:05.703Z,3.50
2018-12-24T07:58:35.182Z,2.90
2018-12-24T08:01:04.625Z,3.30
2018-12-24T08:03:33.819Z,3.40
2018-12-24T08:06:03.021Z,3.33
2018-12-24T08:08:32.260Z,3.20
2018-12-24T08:11:01.803Z,3.00
2018-12-24T08:13:31.441Z,3.03
2018-12-24T08:16:00.829Z,2.87
2018-12-24T08:18:30.097Z,3.03
2018-12-24T08:20:59.336Z,2.43
2018-12-24T08:23:28.608Z,2.33
2018-12-24T08:25:57.997Z,2.53
2018-12-24T08:28:27.318Z,2.27
2018-12-24T08:30:56.575Z,1.93
2018-12-24T08:33:27.825Z,2.23
2018-12-24T08:35:57.377Z,2.10
2018-12-24T08:38:26.634Z,2.63
2018-12-24T08:40:55.912Z,2.87
2018-12-24T08:43:25.134Z,2.47
2018-12-24T08:45:54.433Z,2.70
2018-12-24T08:48:23.678Z,3.30
2018-12-24T08:50:52.862Z,3.10
2018-12-24T08:53:22.140Z,3.47
2018-12-24T08:55:51.362Z,3.60
2018-12-24T08:58:20.933Z,3.43
2018-12-24T09:00:50.159Z,3.63
2018-12-24T09:03:19.381Z,4.07
2018-12-24T09:05:48.692Z,3.03
2018-12-24T09:08:18.223Z,3.37
2018-12-24T09:10:47.441Z,3.27
2018-12-24T09:13:16.663Z,3.43
2018-12-24T09:15:45.893Z,3.00
2018-12-24T09:18:15.388Z,2.70
2018-12-24T09:20:52.455Z,2.60
2018-12-24T09:23:15.698Z,2.63
2018-12-24T09:25:45.260Z,2.40
2018-12-24T09:28:14.765Z,2.17
2018-12-24T09:30:44.986Z,2.70
2018-12-24T09:33:14.250Z,2.23
2018-12-24T09:35:43.726Z,2.53
2018-12-24T09:38:12.975Z,2.40
2018-12-24T09:40:42.173Z,2.57
2018-12-24T09:43:11.381Z,2.60
2018-12-24T09:45:40.593Z,2.87
2018-12-24T09:48:09.791Z,3.60
2018-12-24T09:50:39.307Z,3.20
2018-12-24T09:53:08.535Z,3.40
2018-12-24T09:55:37.848Z,3.63
2018-12-24T09:58:07.356Z,3.83
2018-12-24T10:00:36.575Z,2.83
2018-12-24T10:03:07.366Z,3.03
2018-12-24T10:05:36.563Z,4.07
2018-12-24T10:08:09.172Z,3.27
2018-12-24T10:10:38.470Z,2.60
2018-12-24T10:13:07.740Z,2.40
2018-12-24T10:15:36.935Z,2.63
2018-12-24T10:18:06.166Z,2.43
2018-12-24T10:20:36.054Z,2.90
2018-12-24T10:23:05.264Z,2.10
2018-12-24T10:25:34.737Z,2.63
2018-12-24T10:28:04.213Z,2.30
2018-12-24T10:30:33.450Z,2.33
2018-12-24T10:33:02.921Z,2.73
2018-12-24T10:35:32.168Z,2.93
2018-12-24T10:38:01.402Z,2.60
2018-12-24T10:40:31.075Z,2.80
2018-12-24T10:43:00.616Z,3.70
2018-12-24T10:45:29.935Z,3.73
2018-12-24T10:47:59.389Z,3.67
2018-12-24T10:50:28.878Z,3.37
2018-12-24T10:52:58.152Z,3.77
2018-12-24T10:55:27.669Z,3.27
2018-12-24T10:57:56.859Z,4.70
2018-12-24T11:00:26.084Z,4.20
2018-12-24T11:02:55.874Z,2.50
2018-12-24T11:05:25.343Z,2.63
2018-12-24T11:07:56.952Z,2.73
2018-12-24T11:10:27.032Z,3.03
2018-12-24T11:12:56.312Z,3.40
2018-12-24T11:15:25.558Z,3.27
2018-12-24T11:17:55.049Z,5.87
2018-12-24T11:20:24.300Z,4.20
2018-12-24T11:22:53.777Z,4.10
2018-12-24T11:25:23.040Z,3.90
2018-12-24T11:27:52.286Z,3.40
2018-12-24T11:30:21.570Z,4.90
2018-12-24T11:32:50.894Z,4.37
2018-12-24T11:35:20.397Z,4.90
2018-12-24T11:37:49.871Z,3.73
2018-12-24T11:40:19.105Z,6.23
2018-12-24T11:42:48.352Z,4.57
2018-12-24T11:45:17.670Z,5.60
2018-12-24T11:47:46.936Z,5.00
2018-12-24T11:50:16.478Z,3.43
2018-12-24T11:52:45.679Z,3.23
2018-12-24T11:55:15.506Z,2.97
2018-12-24T11:57:44.805Z,3.17
2018-12-24T12:00:14.268Z,2.90
2018-12-24T12:02:43.471Z,2.80
2018-12-24T12:05:12.694Z,2.73
2018-12-24T12:07:42.424Z,2.80
2018-12-24T12:10:11.610Z,2.83
2018-12-24T12:12:40.834Z,2.67
2018-12-24T12:15:10.035Z,2.87
2018-12-24T12:17:40.205Z,3.23
2018-12-24T12:20:09.435Z,2.83
2018-12-24T12:22:38.914Z,3.10
2018-12-24T12:25:08.139Z,4.70
2018-12-24T12:27:37.657Z,3.27
2018-12-24T12:30:08.909Z,2.87
2018-12-24T12:32:38.163Z,2.93
2018-12-24T12:35:42.822Z,2.87
2018-12-24T12:38:11.909Z,3.10
2018-12-24T12:40:41.007Z,3.03
2018-12-24T12:43:10.201Z,3.40
2018-12-24T12:45:39.550Z,3.30
2018-12-24T12:48:08.746Z,3.30
2018-12-24T12:50:37.886Z,2.97
2018-12-24T12:53:07.812Z,2.40
2018-12-24T12:55:56.270Z,3.83
2018-12-24T12:58:25.376Z,3.20
2018-12-24T13:00:54.481Z,2.80
2018-12-24T13:03:23.829Z,3.07
2018-12-24T13:05:53.284Z,2.53
2018-12-24T13:08:22.745Z,2.70
2018-12-24T13:10:52.128Z,2.53
2018-12-24T13:13:21.273Z,2.60
2018-12-24T13:15:50.543Z,2.60
2018-12-24T13:18:19.654Z,2.50
2018-12-24T13:20:48.749Z,2.60
2018-12-24T13:23:17.894Z,2.60
2018-12-24T13:25:47.024Z,2.93
2018-12-24T13:28:16.486Z,2.83
2018-12-24T13:30:45.587Z,3.30
2018-12-24T13:33:14.953Z,2.93
2018-12-24T13:35:44.295Z,2.73
2018-12-24T13:38:13.404Z,2.53
2018-12-24T13:40:42.769Z,2.43
2018-12-24T13:43:12.215Z,2.47
2018-12-24T13:45:41.297Z,2.10
2018-12-24T13:48:10.429Z,2.10
2018-12-24T13:50:39.566Z,2.20
2018-12-24T13:53:08.753Z,2.37
2018-12-24T13:55:37.842Z,2.80
2018-12-24T13:58:07.244Z,3.40
2018-12-24T14:00:36.382Z,2.83
2018-12-24T14:03:05.509Z,2.83
2018-12-24T14:05:34.613Z,3.33
2018-12-24T14:08:03.757Z,3.13
2018-12-24T14:10:32.846Z,2.47
2018-12-24T14:13:02.276Z,2.60
2018-12-24T14:15:31.365Z,2.80
2018-12-24T14:18:00.510Z,2.67
2018-12-24T14:20:29.698Z,3.43
2018-12-24T14:22:59.116Z,3.53
2018-12-24T14:25:28.203Z,3.50
2018-12-24T14:27:57.329Z,3.93
2018-12-24T14:30:26.474Z,6.83
2018-12-24T14:32:55.884Z,3.93
2018-12-24T14:35:25.010Z,3.60
2018-12-24T14:37:54.368Z,3.33
2018-12-24T14:40:23.731Z,3.97
2018-12-24T14:42:52.847Z,3.03
2018-12-24T14:45:21.964Z,3.87
2018-12-24T14:47:51.073Z,2.90
2018-12-24T14:50:20.206Z,3.10
2018-12-24T14:52:49.355Z,4.67
2018-12-24T14:55:20.644Z,3.93
2018-12-24T14:57:49.696Z,3.80
2018-12-24T15:00:19.093Z,2.90
2018-12-24T15:02:48.214Z,3.20
2018-12-24T15:05:17.339Z,3.50
2018-12-24T15:07:46.762Z,4.20
2018-12-24T15:10:16.057Z,3.87
2018-12-24T15:12:45.173Z,2.57
2018-12-24T15:15:14.334Z,4.27
2018-12-24T15:17:43.406Z,3.73
2018-12-24T15:20:12.779Z,3.37
2018-12-24T15:22:41.898Z,3.30
2018-12-24T15:25:11.002Z,3.83
2018-12-24T15:27:40.081Z,4.23
2018-12-24T15:30:09.179Z,3.67
2018-12-24T15:32:38.713Z,3.50
2018-12-24T15:35:07.846Z,3.60
2018-12-24T15:37:36.940Z,5.17
2018-12-24T15:40:06.188Z,3.53
2018-12-24T15:42:35.337Z,3.73
2018-12-24T15:45:04.791Z,4.20
2018-12-24T15:47:33.877Z,3.57
2018-12-24T15:50:03.268Z,3.47
2018-12-24T15:52:32.402Z,3.10
2018-12-24T15:55:01.587Z,3.00
2018-12-24T15:57:30.737Z,2.93
2018-12-24T16:00:00.175Z,3.03
2018-12-24T16:02:29.256Z,3.10
2018-12-24T16:04:58.397Z,3.23
2018-12-24T16:07:27.798Z,2.90
2018-12-24T16:09:56.874Z,2.87
2018-12-24T16:12:26.289Z,3.10
2018-12-24T16:14:55.543Z,3.00
2018-12-24T16:17:24.630Z,4.13
2018-12-24T16:19:53.771Z,3.10
2018-12-24T16:22:22.866Z,3.00
2018-12-24T16:24:52.003Z,2.70
2018-12-24T16:27:21.098Z,2.97
2018-12-24T16:29:50.490Z,2.83
2018-12-24T16:32:19.846Z,2.90
2018-12-24T16:34:48.959Z,3.00
2018-12-24T16:37:18.306Z,3.03
2018-12-24T16:39:47.417Z,2.37
2018-12-24T16:42:16.767Z,3.13
2018-12-24T16:44:45.999Z,3.00
2018-12-24T16:47:15.357Z,2.80
2018-12-24T16:49:45.053Z,3.70
2018-12-24T16:52:14.442Z,3.07
2018-12-24T16:54:43.593Z,2.70
2018-12-24T16:57:12.940Z,2.80
2018-12-24T16:59:42.083Z,2.60
2018-12-24T17:02:11.431Z,2.50
2018-12-24T17:04:40.982Z,3.07
2018-12-24T17:07:10.085Z,2.70
2018-12-24T17:09:41.915Z,3.27
2018-12-24T17:12:11.022Z,3.17
2018-12-24T17:14:40.252Z,2.43
2018-12-24T17:17:09.355Z,3.07
2018-12-24T17:19:38.520Z,3.37
2018-12-24T17:22:07.622Z,2.80
2018-12-24T17:24:37.122Z,3.20
2018-12-24T17:27:06.234Z,2.80
2018-12-24T17:29:35.706Z,2.80
2018-12-24T17:32:04.815Z,3.23
2018-12-24T17:34:33.891Z,2.93
2018-12-24T17:37:03.277Z,3.10
2018-12-24T17:39:32.391Z,3.17
2018-12-24T17:42:01.582Z,3.27
2018-12-24T17:44:30.698Z,3.30
2018-12-24T17:46:59.826Z,3.17
2018-12-24T17:49:28.947Z,2.83
2018-12-24T17:51:58.075Z,2.93
2018-12-24T17:54:27.416Z,3.13
2018-12-24T17:56:56.824Z,3.33
2018-12-24T17:59:26.571Z,3.50
2018-12-24T18:01:55.771Z,3.60
2018-12-24T18:04:24.940Z,3.10
2018-12-24T18:06:54.092Z,3.43
2018-12-24T18:09:23.211Z,3.33
2018-12-24T18:11:52.322Z,3.70
2018-12-24T18:14:21.438Z,3.47
2018-12-24T18:16:50.804Z,3.73
2018-12-24T18:19:19.925Z,3.03
2018-12-24T18:21:49.314Z,3.23
2018-12-24T18:24:18.402Z,4.10
2018-12-24T18:26:47.551Z,3.33
2018-12-24T18:29:16.914Z,3.87
2018-12-24T18:31:46.300Z,3.40
2018-12-24T18:34:15.651Z,4.03
2018-12-24T18:36:44.839Z,4.00
2018-12-24T18:39:14.375Z,3.50
2018-12-24T18:41:43.511Z,3.30
2018-12-24T18:44:12.890Z,3.43
2018-12-24T18:46:42.053Z,3.80
2018-12-24T18:49:11.391Z,4.30
2018-12-24T18:51:40.504Z,4.20
2018-12-24T18:54:11.262Z,4.67
2018-12-24T18:56:40.375Z,3.03
2018-12-24T18:59:09.499Z,3.20
2018-12-24T19:01:38.609Z,3.30
2018-12-24T19:04:07.799Z,3.10
2018-12-24T19:06:36.947Z,3.53
2018-12-24T19:09:07.475Z,3.87
2018-12-24T19:11:36.636Z,3.33
2018-12-24T19:14:05.734Z,3.03
2018-12-24T19:16:34.981Z,5.07
2018-12-24T19:19:04.231Z,3.60
2018-12-24T19:21:33.723Z,4.00
2018-12-24T19:24:02.812Z,3.03
2018-12-24T19:26:32.189Z,3.40
2018-12-24T19:29:01.317Z,3.70
2018-12-24T19:31:30.715Z,3.63
2018-12-24T19:34:00.057Z,3.30
2018-12-24T19:36:29.197Z,3.37
2018-12-24T19:38:58.321Z,3.60
2018-12-24T19:41:27.431Z,4.10
2018-12-24T19:43:56.799Z,3.57
2018-12-24T19:46:25.888Z,3.53
2018-12-24T19:48:55.238Z,3.80
2018-12-24T19:51:24.446Z,3.50
2018-12-24T19:53:53.538Z,3.80
2018-12-24T19:56:22.905Z,3.83
2018-12-24T19:58:52.271Z,3.10
2018-12-24T20:01:21.359Z,2.87
2018-12-24T20:03:50.449Z,3.47
2018-12-24T20:06:19.537Z,3.40
2018-12-24T20:08:48.641Z,3.47
2018-12-24T20:11:17.730Z,3.00
2018-12-24T20:13:47.447Z,2.80
2018-12-24T20:16:17.082Z,3.20
2018-12-24T20:18:46.178Z,3.50
2018-12-24T20:21:15.277Z,3.80
2018-12-24T20:23:44.661Z,3.53
2018-12-24T20:26:13.934Z,3.80
2018-12-24T20:28:43.344Z,3.30
2018-12-24T20:31:12.461Z,3.43
2018-12-24T20:33:41.595Z,4.13
2018-12-24T20:36:10.679Z,4.13
2018-12-24T20:38:39.815Z,3.90
2018-12-24T20:41:09.191Z,3.73
2018-12-24T20:43:38.335Z,3.97
2018-12-24T20:46:07.933Z,4.33
2018-12-24T20:48:37.053Z,4.30
2018-12-24T20:51:06.399Z,4.00
2018-12-24T20:53:35.585Z,4.47
2018-12-24T20:56:04.705Z,4.17
2018-12-24T20:58:33.971Z,4.63
2018-12-24T21:01:03.143Z,3.90
2018-12-24T21:03:32.495Z,4.43
2018-12-24T21:06:01.834Z,3.83
2018-12-24T21:08:30.973Z,4.37
2018-12-24T21:11:00.106Z,4.47
2018-12-24T21:13:29.291Z,4.60
2018-12-24T21:15:58.670Z,4.03
2018-12-24T21:18:27.810Z,4.43
2018-12-24T21:20:56.922Z,4.50
2018-12-24T21:23:26.063Z,4.30
2018-12-24T21:25:55.402Z,4.03
2018-12-24T21:28:24.794Z,4.20
2018-12-24T21:30:54.227Z,4.73
2018-12-24T21:33:23.636Z,4.40
2018-12-24T21:35:53.201Z,4.53
2018-12-24T21:38:22.924Z,4.63
2018-12-24T21:40:52.080Z,4.90
2018-12-24T21:43:21.226Z,3.97
2018-12-24T21:45:55.155Z,4.40
2018-12-24T21:48:24.324Z,4.17
2018-12-24T21:50:53.737Z,4.50
2018-12-24T21:53:23.361Z,4.43
2018-12-24T21:55:52.813Z,4.07
2018-12-24T21:58:22.037Z,4.33
2018-12-24T22:00:51.394Z,4.50
2018-12-24T22:03:20.545Z,4.43
2018-12-24T22:05:49.941Z,3.97
2018-12-24T22:08:19.371Z,4.60
2018-12-24T22:10:48.489Z,4.40
2018-12-24T22:13:17.668Z,4.80
2018-12-24T22:15:46.784Z,4.57
2018-12-24T22:18:15.871Z,4.23
2018-12-24T22:20:45.032Z,5.30
2018-12-24T22:23:14.229Z,4.63
2018-12-24T22:25:43.592Z,4.37
2018-12-24T22:28:12.891Z,5.03
2018-12-24T22:30:41.986Z,5.00
2018-12-24T22:33:11.083Z,4.60
2018-12-24T22:35:40.468Z,5.37
2018-12-24T22:38:09.814Z,5.33
2018-12-24T22:40:39.205Z,5.50
2018-12-24T22:43:08.620Z,4.77
2018-12-24T22:45:37.748Z,5.30
2018-12-24T22:48:07.123Z,5.37
2018-12-24T22:50:36.259Z,5.77
2018-12-24T22:53:05.374Z,5.43
2018-12-24T22:55:34.766Z,5.70
2018-12-24T22:58:03.850Z,6.50
2018-12-24T23:00:34.962Z,5.83
2018-12-24T23:03:04.118Z,5.73
2018-12-24T23:05:33.261Z,5.67
2018-12-24T23:08:02.841Z,5.63
2018-12-24T23:10:31.975Z,5.30
2018-12-24T23:13:01.091Z,5.63
2018-12-24T23:15:30.246Z,4.73
2018-12-24T23:17:59.573Z,5.17
2018-12-24T23:20:28.934Z,4.57
2018-12-24T23:22:58.051Z,5.27
2018-12-24T23:25:27.150Z,5.53
2018-12-24T23:27:56.282Z,5.60
2018-12-24T23:30:25.407Z,5.20
2018-12-24T23:32:54.548Z,4.90
2018-12-24T23:35:23.667Z,4.77
2018-12-24T23:37:52.791Z,5.23
2018-12-24T23:40:22.272Z,4.90
2018-12-24T23:42:51.828Z,4.93
2018-12-24T23:45:21.216Z,5.00
2018-12-24T23:47:50.540Z,5.23
2018-12-24T23:50:20.016Z,5.13
2018-12-24T23:52:49.406Z,5.07
2018-12-24T23:55:18.576Z,5.23
2018-12-24T23:57:47.695Z,5.67
